Time,TemperatureF,DewpointF,PressureIn,WindDirection,WindDirectionDegrees,WindSpeedMPH,WindSpeedGustMPH,Humidity,HourlyPrecipIn,Conditions,Clouds,dailyrainin,SoftwareType,DateUTC
2013-04-10 00:07:00,72.1,65.0,29.84,SSE,153,6.0,14.0,77,0.00,,,0.00,weatherlink.com 1.10,2013-04-10 05:07:00,
2013-04-10 00:22:00,71.8,65.0,29.84,SSE,148,1.0,8.0,78,0.00,,,0.00,weatherlink.com 1.10,2013-04-10 05:22:00,
2013-04-10 00:37:00,71.7,65.0,29.84,SSW,192,2.0,10.0,78,0.00,,,0.00,weatherlink.com 1.10,2013-04-10 05:37:00,
2013-04-10 00:52:00,71.2,64.0,29.86,SSE,153,1.0,10.0,78,0.00,,,0.00,weatherlink.com 1.10,2013-04-10 05:52:00,
2013-04-10 01:07:00,71.4,64.0,29.86,SSW,193,2.0,10.0,78,0.00,,,0.00,weatherlink.com 1.10,2013-04-10 06:07:00,
2013-04-10 01:22:00,71.4,64.0,29.86,SSW,209,1.0,10.0,78,0.00,,,0.00,weatherlink.com 1.10,2013-04-10 06:22:00,
2013-04-10 01:37:00,72.0,65.0,29.86,SSE,161,5.0,11.0,78,0.00,,,0.00,weatherlink.com 1.10,2013-04-10 06:37:00,
2013-04-10 01:52:00,72.1,65.0,29.85,WSW,244,5.0,11.0,78,0.00,,,0.00,weatherlink.com 1.10,2013-04-10 06:52:00,
2013-04-10 02:07:00,71.9,65.0,29.84,South,180,5.0,12.0,78,0.00,,,0.00,weatherlink.com 1.10,2013-04-10 07:07:00,
2013-04-10 02:22:00,71.9,65.0,29.84,SW,234,3.0,12.0,78,0.00,,,0.00,weatherlink.com 1.10,2013-04-10 07:22:00,
2013-04-10 02:37:00,71.8,65.0,29.83,South,180,5.0,12.0,79,0.00,,,0.00,weatherlink.com 1.10,2013-04-10 07:37:00,
2013-04-10 02:52:00,71.8,65.0,29.84,South,182,8.0,12.0,79,0.00,,,0.00,weatherlink.com 1.10,2013-04-10 07:52:00,
2013-04-10 03:07:00,71.4,65.0,29.84,SSE,167,5.0,20.0,80,0.00,,,0.00,weatherlink.com 1.10,2013-04-10 08:07:00,
2013-04-10 03:22:00,71.3,65.0,29.83,SSE,165,5.0,19.0,81,0.00,,,0.00,weatherlink.com 1.10,2013-04-10 08:22:00,
2013-04-10 03:37:00,71.1,65.0,29.84,SSE,167,2.0,15.0,81,0.00,,,0.00,weatherlink.com 1.10,2013-04-10 08:37:00,
2013-04-10 03:52:00,71.0,65.0,29.84,WSW,237,4.0,15.0,81,0.00,,,0.00,weatherlink.com 1.10,2013-04-10 08:52:00,
2013-04-10 04:07:00,71.2,65.0,29.85,SSW,207,4.0,16.0,81,0.00,,,0.00,weatherlink.com 1.10,2013-04-10 09:07:00,
2013-04-10 04:22:00,71.3,65.0,29.85,West,259,8.0,18.0,81,0.00,,,0.00,weatherlink.com 1.10,2013-04-10 09:22:00,
2013-04-10 04:37:00,71.3,66.0,29.85,SW,228,7.0,15.0,82,0.00,,,0.00,weatherlink.com 1.10,2013-04-10 09:37:00,
2013-04-10 04:52:00,71.0,65.0,29.85,WSW,248,6.0,12.0,82,0.00,,,0.00,weatherlink.com 1.10,2013-04-10 09:52:00,
2013-04-10 05:07:00,70.5,65.0,29.85,SW,218,8.0,14.0,83,0.00,,,0.00,weatherlink.com 1.10,2013-04-10 10:07:00,
2013-04-10 05:22:00,70.3,65.0,29.84,SSW,204,5.0,10.0,83,0.00,,,0.00,weatherlink.com 1.10,2013-04-10 10:22:00,
2013-04-10 05:37:00,69.9,65.0,29.84,SSE,147,7.0,10.0,83,0.00,,,0.00,weatherlink.com 1.10,2013-04-10 10:37:00,
2013-04-10 05:52:00,69.7,65.0,29.85,SW,227,9.0,9.0,84,0.00,,,0.00,weatherlink.com 1.10,2013-04-10 10:52:00,
2013-04-10 06:07:00,69.3,64.0,29.86,South,169,5.0,7.0,84,0.00,,,0.00,weatherlink.com 1.10,2013-04-10 11:07:00,
2013-04-10 06:22:00,69.2,65.0,29.87,SSE,166,4.0,7.0,85,0.00,,,0.00,weatherlink.com 1.10,2013-04-10 11:22:00,
2013-04-10 06:37:00,68.8,65.0,29.87,SSE,147,1.0,6.0,86,0.00,,,0.00,weatherlink.com 1.10,2013-04-10 11:37:00,
2013-04-10 06:52:00,68.9,65.0,29.88,SSW,202,1.0,8.0,86,0.00,,,0.00,weatherlink.com 1.10,2013-04-10 11:52:00,
2013-04-10 07:07:00,69.3,65.0,29.87,South,172,5.0,8.0,85,0.00,,,0.00,weatherlink.com 1.10,2013-04-10 12:07:00,
2013-04-10 07:23:00,69.8,65.0,29.87,SSW,200,3.0,9.0,84,0.00,,,0.00,weatherlink.com 1.10,2013-04-10 12:23:00,
2013-04-10 07:38:00,70.8,65.0,29.88,South,170,7.0,8.0,82,0.00,,,0.00,weatherlink.com 1.10,2013-04-10 12:38:00,
2013-04-10 07:53:00,71.3,65.0,29.88,SE,131,3.0,13.0,81,0.00,,,0.00,weatherlink.com 1.10,2013-04-10 12:53:00,
2013-04-10 08:08:00,71.8,65.0,29.88,SSW,196,9.0,13.0,78,0.00,,,0.00,weatherlink.com 1.10,2013-04-10 13:08:00,
2013-04-10 08:23:00,73.1,65.0,29.88,SSW,200,3.0,13.0,76,0.00,,,0.00,weatherlink.com 1.10,2013-04-10 13:23:00,
2013-04-10 08:38:00,72.6,65.0,29.89,SW,226,8.0,12.0,76,0.00,,,0.00,weatherlink.com 1.10,2013-04-10 13:38:00,
2013-04-10 08:53:00,72.8,65.0,29.89,WSW,243,6.0,11.0,76,0.00,,,0.00,weatherlink.com 1.10,2013-04-10 13:53:00,
2013-04-10 09:08:00,73.0,65.0,29.89,SSW,194,6.0,9.0,75,0.00,,,0.00,weatherlink.com 1.10,2013-04-10 14:08:00,
2013-04-10 09:23:00,72.4,64.0,29.90,SW,217,8.0,13.0,76,0.00,,,0.00,weatherlink.com 1.10,2013-04-10 14:23:00,
2013-04-10 09:38:00,72.5,65.0,29.90,South,190,6.0,11.0,76,0.00,,,0.00,weatherlink.com 1.10,2013-04-10 14:38:00,
2013-04-10 09:53:00,73.1,65.0,29.90,SE,143,4.0,8.0,76,0.00,,,0.00,weatherlink.com 1.10,2013-04-10 14:53:00,
2013-04-10 10:08:00,73.1,65.0,29.91,SE,132,4.0,12.0,76,0.00,,,0.00,weatherlink.com 1.10,2013-04-10 15:08:00,
2013-04-10 10:23:00,73.4,65.0,29.91,SSE,153,2.0,13.0,76,0.00,,,0.00,weatherlink.com 1.10,2013-04-10 15:23:00,
2013-04-10 10:38:00,73.6,66.0,29.91,SSE,166,4.0,13.0,76,0.00,,,0.00,weatherlink.com 1.10,2013-04-10 15:38:00,
2013-04-10 10:53:00,74.5,66.0,29.91,SSW,213,4.0,11.0,75,0.00,,,0.00,weatherlink.com 1.10,2013-04-10 15:53:00,
2013-04-10 11:08:00,75.2,66.0,29.91,South,183,2.0,11.0,74,0.00,,,0.00,weatherlink.com 1.10,2013-04-10 16:08:00,
2013-04-10 11:23:00,74.7,66.0,29.91,South,172,8.0,11.0,73,0.00,,,0.00,weatherlink.com 1.10,2013-04-10 16:23:00,
2013-04-10 11:38:00,74.3,66.0,29.91,SSE,156,3.0,10.0,75,0.00,,,0.00,weatherlink.com 1.10,2013-04-10 16:38:00,
2013-04-10 11:53:00,76.7,67.0,29.89,SW,227,2.0,18.0,71,0.00,,,0.00,weatherlink.com 1.10,2013-04-10 16:53:00,
2013-04-10 12:08:00,77.2,67.0,29.89,South,172,2.0,15.0,70,0.00,,,0.00,weatherlink.com 1.10,2013-04-10 17:08:00,
2013-04-10 12:23:00,77.4,66.0,29.88,SSE,150,8.0,11.0,69,0.00,,,0.00,weatherlink.com 1.10,2013-04-10 17:23:00,
2013-04-10 12:38:00,78.6,67.0,29.88,South,182,11.0,16.0,67,0.00,,,0.00,weatherlink.com 1.10,2013-04-10 17:38:00,
2013-04-10 12:53:00,80.0,67.0,29.87,SW,220,10.0,15.0,65,0.00,,,0.00,weatherlink.com 1.10,2013-04-10 17:53:00,
2013-04-10 13:08:00,79.6,67.0,29.86,South,191,5.0,15.0,66,0.00,,,0.00,weatherlink.com 1.10,2013-04-10 18:08:00,
2013-04-10 13:23:00,80.5,67.0,29.86,South,181,6.0,16.0,64,0.00,,,0.00,weatherlink.com 1.10,2013-04-10 18:23:00,
2013-04-10 13:38:00,80.6,67.0,29.85,South,174,2.0,14.0,64,0.00,,,0.00,weatherlink.com 1.10,2013-04-10 18:38:00,
2013-04-10 13:53:00,79.8,67.0,29.84,SSW,196,3.0,14.0,64,0.00,,,0.00,weatherlink.com 1.10,2013-04-10 18:53:00,
2013-04-10 14:08:00,81.2,68.0,29.83,SSE,152,7.0,15.0,64,0.00,,,0.00,weatherlink.com 1.10,2013-04-10 19:08:00,
2013-04-10 14:23:00,81.1,67.0,29.82,SSE,157,5.0,16.0,62,0.00,,,0.00,weatherlink.com 1.10,2013-04-10 19:23:00,
2013-04-10 14:38:00,81.8,67.0,29.82,South,174,7.0,15.0,62,0.00,,,0.00,weatherlink.com 1.10,2013-04-10 19:38:00,
2013-04-10 14:54:00,80.9,65.0,29.81,SSE,165,4.0,15.0,59,0.00,,,0.00,weatherlink.com 1.10,2013-04-10 19:54:00,
2013-04-10 15:09:00,81.1,65.0,29.80,SE,134,4.0,16.0,59,0.00,,,0.00,weatherlink.com 1.10,2013-04-10 20:09:00,
2013-04-10 15:24:00,82.0,66.0,29.79,SSW,200,8.0,14.0,59,0.00,,,0.00,weatherlink.com 1.10,2013-04-10 20:24:00,
2013-04-10 15:39:00,81.9,66.0,29.78,South,175,7.0,14.0,58,0.00,,,0.00,weatherlink.com 1.10,2013-04-10 20:39:00,
2013-04-10 15:54:00,80.5,66.0,29.77,South,170,4.0,12.0,62,0.00,,,0.00,weatherlink.com 1.10,2013-04-10 20:54:00,
2013-04-10 16:09:00,82.1,67.0,29.77,SSE,165,9.0,14.0,60,0.00,,,0.00,weatherlink.com 1.10,2013-04-10 21:09:00,
2013-04-10 16:24:00,82.3,66.0,29.75,WSW,247,8.0,18.0,59,0.00,,,0.00,weatherlink.com 1.10,2013-04-10 21:24:00,
2013-04-10 16:39:00,82.2,66.0,29.75,WSW,247,9.0,14.0,58,0.00,,,0.00,weatherlink.com 1.10,2013-04-10 21:39:00,
2013-04-10 16:54:00,81.7,65.0,29.75,South,190,5.0,13.0,58,0.00,,,0.00,weatherlink.com 1.10,2013-04-10 21:54:00,
2013-04-10 17:09:00,81.6,65.0,29.73,South,173,5.0,12.0,58,0.00,,,0.00,weatherlink.com 1.10,2013-04-10 22:09:00,
2013-04-10 17:24:00,81.3,65.0,29.73,SSE,162,5.0,12.0,58,0.00,,,0.00,weatherlink.com 1.10,2013-04-10 22:24:00,
2013-04-10 17:39:00,80.1,65.0,29.73,SSE,163,4.0,12.0,61,0.00,,,0.00,weatherlink.com 1.10,2013-04-10 22:39:00,
2013-04-10 17:54:00,79.6,64.0,29.72,South,171,2.0,9.0,60,0.00,,,0.00,weatherlink.com 1.10,2013-04-10 22:54:00,
2013-04-10 18:09:00,78.9,65.0,29.69,SSE,157,4.0,7.0,62,0.00,,,0.00,weatherlink.com 1.10,2013-04-10 23:09:00,
2013-04-10 18:24:00,78.7,64.0,29.68,East,98,2.0,8.0,61,0.00,,,0.00,weatherlink.com 1.10,2013-04-10 23:24:00,
2013-04-10 18:39:00,78.5,64.0,29.68,SSE,159,2.0,11.0,61,0.00,,,0.00,weatherlink.com 1.10,2013-04-10 23:39:00,
2013-04-10 18:54:00,78.0,63.0,29.68,SSE,157,2.0,6.0,61,0.00,,,0.00,weatherlink.com 1.10,2013-04-10 23:54:00,
2013-04-10 19:09:00,77.6,63.0,29.66,South,169,2.0,6.0,61,0.00,,,0.00,weatherlink.com 1.10,2013-04-11 00:09:00,
2013-04-10 19:24:00,77.4,63.0,29.67,SSE,165,1.0,7.0,61,0.00,,,0.00,weatherlink.com 1.10,2013-04-11 00:24:00,
2013-04-10 19:39:00,77.1,63.0,29.68,SSE,147,1.0,6.0,61,0.00,,,0.00,weatherlink.com 1.10,2013-04-11 00:39:00,
2013-04-10 19:54:00,76.1,63.0,29.67,SE,142,5.0,5.0,63,0.00,,,0.00,weatherlink.com 1.10,2013-04-11 00:54:00,
2013-04-10 20:09:00,75.5,62.0,29.66,SSE,150,0.0,5.0,64,0.00,,,0.00,weatherlink.com 1.10,2013-04-11 01:09:00,
2013-04-10 20:24:00,75.3,62.0,29.66,WSW,257,1.0,4.0,64,0.00,,,0.00,weatherlink.com 1.10,2013-04-11 01:24:00,
2013-04-10 20:39:00,75.4,62.0,29.67,SSE,157,0.0,8.0,64,0.00,,,0.00,weatherlink.com 1.10,2013-04-11 01:39:00,
2013-04-10 20:54:00,74.6,62.0,29.69,South,170,0.0,5.0,66,0.00,,,0.00,weatherlink.com 1.10,2013-04-11 01:54:00,
2013-04-10 21:09:00,75.1,62.0,29.69,SSW,211,2.0,7.0,65,0.00,,,0.00,weatherlink.com 1.10,2013-04-11 02:09:00,
2013-04-10 21:24:00,75.6,62.0,29.69,SSW,196,0.0,5.0,63,0.00,,,0.00,weatherlink.com 1.10,2013-04-11 02:24:00,
2013-04-10 21:39:00,74.2,62.0,29.68,South,177,4.0,4.0,66,0.00,,,0.00,weatherlink.com 1.10,2013-04-11 02:39:00,
2013-04-10 21:54:00,74.6,62.0,29.68,South,171,3.0,5.0,66,0.00,,,0.00,weatherlink.com 1.10,2013-04-11 02:54:00,
2013-04-10 22:09:00,73.9,62.0,29.68,SSE,160,2.0,5.0,67,0.00,,,0.00,weatherlink.com 1.10,2013-04-11 03:09:00,
2013-04-10 22:39:00,74.6,62.0,29.67,SSE,147,1.0,8.0,66,0.00,,,0.00,weatherlink.com 1.10,2013-04-11 03:39:00,
2013-04-10 22:54:00,74.4,62.0,29.67,South,179,1.0,7.0,66,0.00,,,0.00,weatherlink.com 1.10,2013-04-11 03:54:00,
2013-04-10 23:09:00,74.7,62.0,29.67,South,190,1.0,7.0,65,0.00,,,0.00,weatherlink.com 1.10,2013-04-11 04:09:00,
2013-04-10 23:24:00,74.3,63.0,29.68,SSE,155,4.0,7.0,67,0.00,,,0.00,weatherlink.com 1.10,2013-04-11 04:24:00,
2013-04-10 23:39:00,73.0,63.0,29.67,South,182,0.0,8.0,70,0.00,,,0.00,weatherlink.com 1.10,2013-04-11 04:39:00,
2013-04-10 23:54:00,72.9,63.0,29.67,South,175,2.0,8.0,71,0.00,,,0.00,weatherlink.com 1.10,2013-04-11 04:54:00,